createdAt,value
2022-11-27T06:18:44.927Z,0.857143
2022-11-27T06:19:44.963Z,0.857143
2022-11-27T06:20:46.828Z,0.857143
2022-11-27T06:21:45.044Z,1.71429
2022-11-27T06:22:45.084Z,1.71429
2022-11-27T06:23:45.126Z,2.5
2022-11-27T06:24:45.149Z,3.35714
2022-11-27T06:25:45.191Z,3.35714
2022-11-27T06:26:45.220Z,4.21429
2022-11-27T06:27:45.254Z,5
2022-11-27T06:28:45.287Z,6.71429
2022-11-27T06:29:45.328Z,7.5
2022-11-27T06:30:45.351Z,9.21429
2022-11-27T06:31:45.438Z,10
2022-11-27T06:32:45.433Z,11.7143
2022-11-27T06:33:45.452Z,13.3571
2022-11-27T06:34:45.477Z,15.8571
2022-11-27T06:35:45.513Z,18.3571
2022-11-27T06:36:45.550Z,20.8571
2022-11-27T06:37:45.579Z,23.3571
2022-11-27T06:38:45.611Z,25.8571
2022-11-27T06:39:45.640Z,29.2143
2022-11-27T06:40:45.682Z,31.7143
2022-11-27T06:41:45.701Z,35
2022-11-27T06:42:45.740Z,38.3571
2022-11-27T06:43:45.769Z,41.7143
2022-11-27T06:44:45.793Z,45
2022-11-27T06:45:45.873Z,48.3571
2022-11-27T06:46:45.862Z,53.3571
2022-11-27T06:47:45.891Z,57.5
2022-11-27T06:48:45.929Z,61.7143
2022-11-27T06:49:45.972Z,65.8571
2022-11-27T06:50:45.996Z,72.5
2022-11-27T06:51:46.023Z,77.5
2022-11-27T06:52:46.061Z,86.7143
2022-11-27T06:53:46.096Z,95.8571
2022-11-27T06:54:46.123Z,100
2022-11-27T06:55:46.167Z,106.714
2022-11-27T06:56:46.194Z,113.357
2022-11-27T06:57:46.220Z,124.214
2022-11-27T06:58:46.254Z,136.714
2022-11-27T06:59:46.289Z,141.714
2022-11-27T07:00:46.500Z,150.857
2022-11-27T07:01:46.374Z,160.857
2022-11-27T07:02:46.372Z,169.214
2022-11-27T07:03:46.400Z,175
2022-11-27T07:04:46.431Z,180
2022-11-27T07:05:46.460Z,196.714
2022-11-27T07:06:46.488Z,197.5
2022-11-27T07:07:46.570Z,210.857
2022-11-27T07:08:46.560Z,235
2022-11-27T07:09:46.581Z,230
2022-11-27T07:10:46.615Z,244.214
2022-11-27T07:11:46.645Z,244.214
2022-11-27T07:12:46.677Z,255
2022-11-27T07:13:46.708Z,275
2022-11-27T07:14:46.728Z,285
2022-11-27T07:15:46.760Z,313.357
2022-11-27T07:16:46.931Z,287.5
2022-11-27T07:17:46.825Z,314.214
2022-11-27T07:18:46.854Z,308.357
2022-11-27T07:19:46.919Z,327.5
2022-11-27T07:20:46.922Z,339.214
2022-11-27T07:21:46.947Z,337.5
2022-11-27T07:22:46.981Z,356.714
2022-11-27T07:23:47.022Z,356.714
2022-11-27T07:24:47.052Z,384.214
2022-11-27T07:25:47.085Z,378.357
2022-11-27T07:26:47.106Z,365.857
2022-11-27T07:27:47.139Z,381.714
2022-11-27T07:28:47.207Z,376.714
2022-11-27T07:29:47.208Z,357.5
2022-11-27T07:30:47.244Z,351.714
2022-11-27T07:31:47.306Z,355.857
2022-11-27T07:32:47.300Z,365.857
2022-11-27T07:33:47.330Z,373.357
2022-11-27T07:34:47.365Z,375
2022-11-27T07:35:47.404Z,379.214
2022-11-27T07:36:47.424Z,394.214
2022-11-27T07:37:47.456Z,403.357
2022-11-27T07:38:47.484Z,455
2022-11-27T07:40:02.119Z,435
2022-11-27T07:40:47.539Z,431.714
2022-11-27T07:41:47.558Z,423.357
2022-11-27T07:42:47.595Z,416.714
2022-11-27T07:43:47.622Z,405
2022-11-27T07:44:47.655Z,398.357
2022-11-27T07:45:47.760Z,396.714
2022-11-27T07:46:47.704Z,401.714
2022-11-27T07:47:47.744Z,416.714
2022-11-27T07:48:47.772Z,428.357
2022-11-27T07:49:47.798Z,450
2022-11-27T07:50:47.831Z,474.214
2022-11-27T07:51:47.861Z,477.5
2022-11-27T07:52:47.894Z,481.714
2022-11-27T07:53:47.928Z,485
2022-11-27T07:54:47.964Z,513.357
2022-11-27T07:55:48.005Z,504.214
2022-11-27T07:56:48.027Z,546.714
2022-11-27T07:57:48.048Z,560
2022-11-27T07:58:48.104Z,533.357
2022-11-27T07:59:48.171Z,519.214
2022-11-27T08:00:48.206Z,515.857
2022-11-27T08:01:48.191Z,519.214
2022-11-27T08:02:48.223Z,540.857
2022-11-27T08:03:48.252Z,549.214
2022-11-27T08:04:48.385Z,566.714
2022-11-27T08:05:48.312Z,533.357
2022-11-27T08:06:48.356Z,579.214
2022-11-27T08:07:48.481Z,610.857
2022-11-27T08:08:48.411Z,608.357
2022-11-27T08:09:48.437Z,685
2022-11-27T08:10:48.475Z,705
2022-11-27T08:11:48.509Z,699.214
2022-11-27T08:12:48.532Z,723.357
2022-11-27T08:13:48.571Z,734.214
2022-11-27T08:14:48.606Z,746.714
2022-11-27T08:15:48.647Z,768.357
2022-11-27T08:16:48.754Z,755.857
2022-11-27T08:17:48.706Z,788.357
2022-11-27T08:18:48.727Z,751.714
2022-11-27T08:19:48.759Z,702.5
2022-11-27T08:20:48.794Z,665
2022-11-27T08:21:48.825Z,632.5
2022-11-27T08:22:48.861Z,630.857
2022-11-27T08:23:48.880Z,636.714
2022-11-27T08:24:48.921Z,614.214
2022-11-27T08:25:48.946Z,615
2022-11-27T08:26:48.974Z,617.5
2022-11-27T08:27:49.015Z,626.714
2022-11-27T08:28:49.036Z,648.357
2022-11-27T08:29:49.073Z,752.5
2022-11-27T08:30:49.105Z,843.357
2022-11-27T08:31:49.239Z,870
2022-11-27T08:32:49.170Z,965
2022-11-27T08:33:49.201Z,877.5
2022-11-27T08:34:49.235Z,889.214
2022-11-27T08:35:49.270Z,778.357
2022-11-27T08:36:49.307Z,712.5
2022-11-27T08:37:49.340Z,622.5
2022-11-27T08:38:49.367Z,644.214
2022-11-27T08:39:49.404Z,696.714
2022-11-27T08:40:49.455Z,793.357
2022-11-27T08:41:49.452Z,903.357
2022-11-27T08:42:49.484Z,988.357
2022-11-27T08:43:49.506Z,863.357
2022-11-27T08:44:49.561Z,789.214
2022-11-27T08:45:49.679Z,814.214
2022-11-27T08:46:49.607Z,775.857
2022-11-27T08:47:49.640Z,731.714
2022-11-27T08:48:49.667Z,700.857
2022-11-27T08:49:49.695Z,677.5
2022-11-27T08:50:49.736Z,667.5
2022-11-27T08:51:49.761Z,677.5
2022-11-27T08:52:49.796Z,715.857
2022-11-27T08:53:49.809Z,697.5
2022-11-27T08:54:53.228Z,654.214
2022-11-27T08:55:49.864Z,625.857
2022-11-27T08:56:49.896Z,609.214
2022-11-27T08:57:49.934Z,617.5
2022-11-27T08:58:49.966Z,622.5
2022-11-27T08:59:50.019Z,622.5
2022-11-27T09:00:50.117Z,600
2022-11-27T09:01:50.052Z,585
2022-11-27T09:02:50.086Z,586.714
2022-11-27T09:03:50.176Z,593.357
2022-11-27T09:04:50.166Z,600.857
2022-11-27T09:05:50.184Z,603.357
2022-11-27T09:06:53.999Z,591.714
2022-11-27T09:07:50.373Z,588.357
2022-11-27T09:08:50.276Z,587.5
2022-11-27T09:09:50.297Z,586.714
2022-11-27T09:10:50.323Z,586.714
2022-11-27T09:11:50.351Z,588.357
2022-11-27T09:12:50.381Z,583.357
2022-11-27T09:13:50.435Z,586.714
2022-11-27T09:14:50.441Z,582.5
2022-11-27T09:15:50.478Z,580.857
2022-11-27T09:16:50.559Z,585
2022-11-27T09:17:50.540Z,588.357
2022-11-27T09:18:50.572Z,581.714
2022-11-27T09:19:50.599Z,583.357
2022-11-27T09:20:50.630Z,585
2022-11-27T09:21:50.661Z,589.214
2022-11-27T09:22:50.684Z,590.857
2022-11-27T09:23:50.716Z,595
2022-11-27T09:24:50.740Z,604.214
2022-11-27T09:25:50.766Z,609.214
2022-11-27T09:26:50.788Z,620
2022-11-27T09:27:50.824Z,629.214
2022-11-27T09:28:50.859Z,644.214
2022-11-27T09:29:50.892Z,653.357
2022-11-27T09:30:50.916Z,663.357
2022-11-27T09:31:51.047Z,663.357
2022-11-27T09:32:50.992Z,659.214
2022-11-27T09:33:51.030Z,661.714
2022-11-27T09:34:51.075Z,664.214
2022-11-27T09:35:51.099Z,670
2022-11-27T09:36:51.118Z,691.714
2022-11-27T09:37:51.147Z,705
2022-11-27T09:38:51.184Z,726.714
2022-11-27T09:39:51.216Z,747.5
2022-11-27T09:40:51.245Z,775.857
2022-11-27T09:41:51.272Z,786.714
2022-11-27T09:42:51.304Z,772.5
2022-11-27T09:43:51.347Z,742.5
2022-11-27T09:44:51.365Z,704.214
2022-11-27T09:45:51.462Z,673.357
2022-11-27T09:46:51.434Z,626.714
2022-11-27T09:47:51.466Z,605
2022-11-27T09:48:51.505Z,612.5
2022-11-27T09:49:51.534Z,630.857
2022-11-27T09:50:51.562Z,645
2022-11-27T09:51:51.599Z,657.5
2022-11-27T09:52:51.624Z,671.714
2022-11-27T09:53:51.653Z,693.357
2022-11-27T09:54:52.692Z,708.357
2022-11-27T09:55:51.719Z,712.5
2022-11-27T09:56:51.741Z,708.357
2022-11-27T09:57:51.769Z,691.714
2022-11-27T09:58:51.796Z,660
2022-11-27T09:59:51.822Z,625
2022-11-27T10:00:51.864Z,573.357
2022-11-27T10:01:51.957Z,535
2022-11-27T10:02:52.039Z,511.714
2022-11-27T10:03:51.969Z,496.714
2022-11-27T10:05:12.847Z,500
2022-11-27T10:05:52.028Z,522.5
2022-11-27T10:06:52.064Z,539.214
2022-11-27T10:07:52.202Z,548.357
2022-11-27T10:08:52.122Z,553.357
2022-11-27T10:09:52.159Z,561.714
2022-11-27T10:10:52.228Z,566.714
2022-11-27T10:11:52.226Z,568.357
2022-11-27T10:12:52.259Z,565.857
2022-11-27T10:13:52.274Z,567.5
2022-11-27T10:14:52.310Z,570.857
2022-11-27T10:15:52.362Z,572.5
2022-11-27T10:16:52.402Z,578.357
2022-11-27T10:17:52.421Z,583.357
2022-11-27T10:18:52.448Z,592.5
2022-11-27T10:19:52.469Z,596.714
2022-11-27T10:20:52.510Z,588.357
2022-11-27T10:21:52.537Z,586.714
2022-11-27T10:22:52.568Z,575.857
2022-11-27T10:23:52.612Z,572.5
2022-11-27T10:24:52.638Z,570
2022-11-27T10:25:52.667Z,569.214
2022-11-27T10:26:52.706Z,569.214
2022-11-27T10:27:52.731Z,570
2022-11-27T10:28:52.770Z,568.357
2022-11-27T10:29:52.796Z,568.357
2022-11-27T10:30:52.833Z,566.714
2022-11-27T10:31:52.930Z,566.714
2022-11-27T10:32:55.564Z,567.5
2022-11-27T10:33:52.919Z,566.714
2022-11-27T10:34:52.954Z,565.857
2022-11-27T10:35:52.989Z,567.5
2022-11-27T10:36:53.025Z,567.5
2022-11-27T10:37:53.044Z,570
2022-11-27T10:38:53.083Z,567.5
2022-11-27T10:39:53.135Z,566.714
2022-11-27T10:40:53.149Z,568.357
2022-11-27T10:41:53.183Z,570.857
2022-11-27T10:42:53.206Z,570
2022-11-27T10:43:53.248Z,565.857
2022-11-27T10:44:53.296Z,565.857
2022-11-27T10:45:53.339Z,565.857
2022-11-27T10:46:53.350Z,565.857
2022-11-27T10:47:53.373Z,564.214
2022-11-27T10:48:53.404Z,561.714
2022-11-27T10:49:53.466Z,561.714
2022-11-27T10:50:53.473Z,562.5
2022-11-27T10:51:53.502Z,562.5
2022-11-27T10:52:53.537Z,563.357
2022-11-27T10:53:53.573Z,562.5
2022-11-27T10:54:53.593Z,561.714
2022-11-27T10:55:53.627Z,564.214
2022-11-27T10:56:53.676Z,565
2022-11-27T10:57:53.705Z,565
2022-11-27T10:58:53.729Z,565.857
2022-11-27T10:59:53.758Z,568.357
2022-11-27T11:00:53.892Z,572.5
2022-11-27T11:01:53.894Z,576.714
2022-11-27T11:02:53.861Z,581.714
2022-11-27T11:03:53.875Z,540
2022-11-27T11:05:16.333Z,483.357
2022-11-27T11:06:18.680Z,445.857
2022-11-27T11:06:53.974Z,421.714
2022-11-27T11:07:54.086Z,422.5
2022-11-27T11:08:58.561Z,480.857
2022-11-27T11:09:54.072Z,638.357
2022-11-27T11:10:54.101Z,871.714
2022-11-27T11:11:54.141Z,1098.36
2022-11-27T11:12:54.171Z,1308.36
2022-11-27T11:13:54.214Z,1453.36
2022-11-27T11:14:54.242Z,1565
2022-11-27T11:15:06.147Z,1584.21
2022-11-27T11:16:06.237Z,1655.86
2022-11-27T11:16:59.725Z,1682.5
2022-11-27T11:17:35.635Z,1684.21
2022-11-27T11:18:35.654Z,1662.5
2022-11-27T11:19:35.684Z,1621.71
2022-11-27T11:19:44.682Z,1612.5
2022-11-27T11:20:44.717Z,1560
2022-11-27T11:21:44.743Z,1498.36
2022-11-27T11:22:44.776Z,1440
2022-11-27T11:23:44.813Z,1373.36
2022-11-27T11:24:44.853Z,1305.86
2022-11-27T11:25:44.881Z,1220.86
2022-11-27T11:26:44.914Z,1122.5
2022-11-27T11:27:44.941Z,1024.21
2022-11-27T11:28:44.971Z,945
2022-11-27T11:29:45.006Z,886.714
2022-11-27T11:30:45.034Z,830.857
2022-11-27T11:31:45.127Z,790.857
2022-11-27T11:32:45.099Z,758.357
2022-11-27T11:33:45.122Z,741.714
2022-11-27T11:34:45.150Z,725
2022-11-27T11:35:45.182Z,700
2022-11-27T11:36:45.222Z,708.357
2022-11-27T11:37:45.245Z,702.5
2022-11-27T11:38:45.277Z,695
2022-11-27T11:39:45.315Z,676.714
2022-11-27T11:40:45.333Z,647.5
2022-11-27T11:41:45.361Z,626.714
2022-11-27T11:42:45.388Z,611.714
2022-11-27T11:43:45.420Z,599.214
2022-11-27T11:44:45.447Z,597.5
2022-11-27T11:45:45.533Z,595.857
2022-11-27T11:46:45.521Z,594.214
2022-11-27T11:47:45.551Z,595
2022-11-27T11:48:45.584Z,595
2022-11-27T11:49:45.614Z,590
2022-11-27T11:50:45.646Z,582.5
2022-11-27T11:51:45.676Z,585
2022-11-27T11:52:45.696Z,579.214
2022-11-27T11:53:45.771Z,570.857
2022-11-27T11:54:45.756Z,563.357
2022-11-27T11:55:45.782Z,553.357
2022-11-27T11:56:45.815Z,535.857
2022-11-27T11:57:45.854Z,512.5
2022-11-27T11:58:45.880Z,501.714
2022-11-27T11:59:45.913Z,489.214
2022-11-27T12:01:18.933Z,486.714
2022-11-27T12:01:46.013Z,498.357
2022-11-27T12:02:46.141Z,495.857
2022-11-27T12:03:46.018Z,495
2022-11-27T12:04:46.082Z,495.857
2022-11-27T12:05:46.082Z,481.714
2022-11-27T12:06:46.111Z,488.357
2022-11-27T12:07:50.660Z,526.714
2022-11-27T12:08:46.182Z,578.357
2022-11-27T12:09:46.203Z,627.5
2022-11-27T12:10:46.231Z,685
2022-11-27T12:11:46.256Z,716.714
2022-11-27T12:12:46.284Z,735.857
2022-11-27T12:13:46.320Z,750.857
2022-11-27T12:14:46.362Z,746.714
2022-11-27T12:15:46.391Z,752.5
2022-11-27T12:16:46.506Z,757.5
2022-11-27T12:17:46.458Z,760.857
2022-11-27T12:18:46.489Z,775.857
2022-11-27T12:19:46.513Z,800.857
2022-11-27T12:20:46.546Z,823.357
2022-11-27T12:21:46.582Z,836.714
2022-11-27T12:22:46.612Z,835.857
2022-11-27T12:23:46.650Z,820.857
2022-11-27T12:24:46.679Z,790.857
2022-11-27T12:25:46.719Z,756.714
2022-11-27T12:26:46.750Z,703.357
2022-11-27T12:27:46.773Z,647.5
2022-11-27T12:28:46.807Z,598.357
2022-11-27T12:29:46.831Z,565
2022-11-27T12:30:46.859Z,557.5
2022-11-27T12:31:47.034Z,575.857
2022-11-27T12:32:46.913Z,611.714
2022-11-27T12:33:46.952Z,659.214
2022-11-27T12:34:46.985Z,705.857
2022-11-27T12:35:47.001Z,745
2022-11-27T12:36:47.033Z,779.214
2022-11-27T12:37:47.067Z,811.714
2022-11-27T12:38:47.095Z,834.214
2022-11-27T12:39:47.125Z,838.357
2022-11-27T12:40:47.155Z,817.5
2022-11-27T12:41:47.192Z,786.714
2022-11-27T12:42:47.216Z,748.357
2022-11-27T12:43:47.257Z,702.5
2022-11-27T12:44:47.277Z,663.357
2022-11-27T12:45:47.407Z,630.857
2022-11-27T12:46:47.329Z,603.357
2022-11-27T12:47:47.363Z,583.357
2022-11-27T12:48:47.379Z,568.357
2022-11-27T12:49:47.408Z,555
2022-11-27T12:50:47.439Z,541.714
2022-11-27T12:51:47.476Z,528.357
2022-11-27T12:52:47.507Z,514.214
2022-11-27T12:53:47.540Z,495
2022-11-27T12:54:47.580Z,498.357
2022-11-27T12:55:47.614Z,491.714
2022-11-27T12:56:47.629Z,487.5
2022-11-27T12:57:47.663Z,486.714
2022-11-27T12:58:47.681Z,485
2022-11-27T12:59:47.716Z,484.214
2022-11-27T13:00:47.776Z,484.214
2022-11-27T13:01:47.992Z,484.214
2022-11-27T13:02:47.862Z,482.5
2022-11-27T13:03:47.850Z,480
2022-11-27T13:04:47.866Z,469.214
2022-11-27T13:05:47.897Z,469.214
2022-11-27T13:06:47.930Z,465.857
2022-11-27T13:07:48.015Z,462.5
2022-11-27T13:08:52.257Z,465
2022-11-27T13:09:47.999Z,462.5
2022-11-27T13:10:48.034Z,456.714
2022-11-27T13:11:48.073Z,450
2022-11-27T13:12:48.098Z,442.5
2022-11-27T13:13:48.129Z,435
2022-11-27T13:14:52.572Z,427.5
2022-11-27T13:15:48.196Z,421.714
2022-11-27T13:16:48.315Z,415.857
2022-11-27T13:17:48.264Z,415
2022-11-27T13:18:48.292Z,407.5
2022-11-27T13:19:48.363Z,396.714
2022-11-27T13:20:52.317Z,385
2022-11-27T13:21:48.378Z,380
2022-11-27T13:22:48.417Z,370
2022-11-27T13:23:48.445Z,358.357
2022-11-27T13:24:48.484Z,355
2022-11-27T13:25:48.514Z,347.5
2022-11-27T13:26:48.545Z,341.714
2022-11-27T13:27:48.590Z,334.214
2022-11-27T13:28:48.597Z,327.5
2022-11-27T13:29:48.630Z,324.214
2022-11-27T13:30:48.661Z,320.857
2022-11-27T13:31:48.833Z,322.5
2022-11-27T13:32:48.734Z,327.5
2022-11-27T13:33:48.745Z,330
2022-11-27T13:34:48.784Z,334.214
2022-11-27T13:35:48.814Z,337.5
2022-11-27T13:36:48.839Z,347.5
2022-11-27T13:37:48.870Z,354.214
2022-11-27T13:38:48.905Z,348.357
2022-11-27T13:39:48.935Z,345.857
2022-11-27T13:40:48.963Z,348.357
2022-11-27T13:41:48.989Z,350.857
2022-11-27T13:42:49.028Z,356.714
2022-11-27T13:43:49.069Z,363.357
2022-11-27T13:44:49.101Z,366.714
2022-11-27T13:45:49.148Z,368.357
2022-11-27T13:46:49.180Z,373.357
2022-11-27T13:47:49.211Z,366.714
2022-11-27T13:48:49.241Z,357.5
2022-11-27T13:49:49.272Z,347.5
2022-11-27T13:50:49.286Z,337.5
2022-11-27T13:51:49.334Z,325
2022-11-27T13:52:49.362Z,312.5
2022-11-27T13:53:49.376Z,301.714
2022-11-27T13:54:49.420Z,292.5
2022-11-27T13:55:49.445Z,283.357
2022-11-27T13:56:49.470Z,274.214
2022-11-27T13:57:49.501Z,266.714
2022-11-27T13:58:49.534Z,258.357
2022-11-27T13:59:49.576Z,250
2022-11-27T14:00:49.641Z,243.357
2022-11-27T14:01:49.692Z,236.714
2022-11-27T14:02:49.679Z,230.857
2022-11-27T14:03:49.699Z,225
2022-11-27T14:04:54.329Z,220
2022-11-27T14:05:49.756Z,216.714
2022-11-27T14:06:49.787Z,213.357
2022-11-27T14:07:49.862Z,210
2022-11-27T14:08:49.853Z,205.857
2022-11-27T14:09:49.886Z,200
2022-11-27T14:10:49.920Z,193.357
2022-11-27T14:11:49.949Z,185
2022-11-27T14:12:49.974Z,178.357
2022-11-27T14:13:49.997Z,172.5
2022-11-27T14:14:50.033Z,169.214
2022-11-27T14:15:50.093Z,168.357
2022-11-27T14:16:50.097Z,171.714
2022-11-27T14:17:50.124Z,175.857
2022-11-27T14:18:50.151Z,182.5
2022-11-27T14:19:50.222Z,190
2022-11-27T14:20:50.213Z,195.857
2022-11-27T14:21:50.240Z,200
2022-11-27T14:23:11.229Z,200
2022-11-27T14:23:50.310Z,195.857
2022-11-27T14:24:50.341Z,187.5
2022-11-27T14:25:50.375Z,177.5
2022-11-27T14:26:50.399Z,167.5
2022-11-27T14:27:50.428Z,160
2022-11-27T14:28:50.460Z,154.214
2022-11-27T14:29:50.507Z,150.857
2022-11-27T14:30:50.535Z,145.857
2022-11-27T14:31:50.601Z,139.214
2022-11-27T14:32:50.600Z,131.714
2022-11-27T14:34:14.389Z,125.857
2022-11-27T14:34:50.673Z,120.857
2022-11-27T14:35:50.694Z,115.857
2022-11-27T14:36:50.709Z,112.5
2022-11-27T14:37:50.736Z,110
2022-11-27T14:38:50.768Z,110
2022-11-27T14:39:50.805Z,111.714
2022-11-27T14:40:50.833Z,113.357
2022-11-27T14:41:50.873Z,114.214
2022-11-27T14:42:50.912Z,111.714
2022-11-27T14:43:50.940Z,107.5
2022-11-27T14:44:50.959Z,100
2022-11-27T14:45:50.997Z,92.5
2022-11-27T14:46:51.119Z,84.2143
2022-11-27T14:47:51.052Z,77.5
2022-11-27T14:48:51.081Z,70.8571
2022-11-27T14:49:54.815Z,65.8571
2022-11-27T14:50:51.139Z,61.7143
2022-11-27T14:51:51.185Z,58.3571
2022-11-27T14:52:51.209Z,55
2022-11-27T14:53:51.235Z,53.3571
2022-11-27T14:54:51.263Z,50
2022-11-27T14:55:51.296Z,47.5
2022-11-27T14:56:51.409Z,45
2022-11-27T14:57:51.369Z,42.5
2022-11-27T14:58:51.403Z,40
2022-11-27T14:59:51.428Z,37.5
2022-11-27T15:00:51.460Z,35
2022-11-27T15:01:51.546Z,32.5
2022-11-27T15:02:51.770Z,30
2022-11-27T15:03:51.668Z,27.5
2022-11-27T15:04:51.575Z,25
2022-11-27T15:05:51.600Z,22.5
2022-11-27T15:06:51.644Z,20.8571
2022-11-27T15:07:51.712Z,18.3571
2022-11-27T15:09:16.001Z,16.7143
2022-11-27T15:09:51.729Z,15
2022-11-27T15:10:51.756Z,13.3571
2022-11-27T15:11:55.999Z,11.7143
2022-11-27T15:12:51.824Z,10
2022-11-27T15:13:51.884Z,9.21429
2022-11-27T15:14:51.893Z,7.5
2022-11-27T15:15:51.959Z,6.71429
2022-11-27T15:16:52.094Z,5.85714
2022-11-27T15:17:52.054Z,5
2022-11-27T15:18:52.026Z,4.21429
2022-11-27T15:19:52.075Z,3.35714
2022-11-27T15:20:52.096Z,2.5
2022-11-27T15:21:52.123Z,1.71429
2022-11-27T15:22:52.149Z,1.71429
2022-11-27T15:23:52.181Z,0.857143
2022-11-27T15:24:52.244Z,0.857143
2022-11-27T15:25:52.251Z,0.857143
